createdAt,value
2017-11-04T00:01:48.759Z,68.40
2017-11-04T00:04:16.259Z,69.50
2017-11-04T00:06:43.735Z,69.60
2017-11-04T00:09:11.223Z,69.70
2017-11-04T00:11:38.720Z,69.90
2017-11-04T00:14:06.180Z,69.70
2017-11-04T00:16:33.684Z,69.50
2017-11-04T00:19:01.166Z,69.60
2017-11-04T00:21:28.722Z,70.30
2017-11-04T00:23:56.247Z,69.60
2017-11-04T00:26:23.722Z,69.30
2017-11-04T00:28:51.188Z,69.70
2017-11-04T00:31:19.467Z,71.00
2017-11-04T00:33:47.696Z,71.50
2017-11-04T00:36:15.169Z,70.60
2017-11-04T00:38:42.668Z,70.30
2017-11-04T00:41:10.895Z,70.50
2017-11-04T00:43:38.481Z,70.50
2017-11-04T00:46:05.954Z,70.30
2017-11-04T00:48:33.487Z,70.40
2017-11-04T00:51:01.714Z,69.90
2017-11-04T00:53:29.204Z,69.80
2017-11-04T00:55:56.699Z,70.30
2017-11-04T00:58:24.374Z,69.80
2017-11-04T01:00:52.036Z,69.90
2017-11-04T01:03:19.534Z,70.20
2017-11-04T01:05:47.891Z,70.00
2017-11-04T01:08:15.541Z,70.00
2017-11-04T01:10:43.049Z,69.60
2017-11-04T01:13:10.750Z,69.80
2017-11-04T01:15:38.207Z,70.00
2017-11-04T01:18:05.708Z,69.70
2017-11-04T01:20:33.154Z,69.70
2017-11-04T01:23:00.794Z,69.60
2017-11-04T01:25:29.043Z,69.60
2017-11-04T01:27:56.522Z,69.60
2017-11-04T01:30:24.029Z,69.70
2017-11-04T01:32:51.508Z,69.50
2017-11-04T01:35:19.263Z,69.70
2017-11-04T01:37:47.468Z,69.20
2017-11-04T01:40:15.076Z,69.10
2017-11-04T01:42:43.336Z,69.20
2017-11-04T01:45:10.814Z,69.10
2017-11-04T01:47:39.038Z,69.20
2017-11-04T01:50:06.545Z,69.20
2017-11-04T01:52:34.045Z,69.30
2017-11-04T01:55:01.543Z,69.70
2017-11-04T01:57:28.955Z,69.80
2017-11-04T01:59:57.233Z,69.40
2017-11-04T02:02:25.500Z,69.40
2017-11-04T02:04:53.740Z,70.20
2017-11-04T02:07:21.260Z,70.20
2017-11-04T02:09:49.518Z,70.20
2017-11-04T02:12:17.009Z,70.20
2017-11-04T02:14:44.458Z,70.20
2017-11-04T02:17:12.973Z,70.30
2017-11-04T02:19:40.486Z,70.30
2017-11-04T02:22:07.979Z,70.20
2017-11-04T02:24:36.217Z,70.20
2017-11-04T02:27:03.696Z,70.20
2017-11-04T02:29:31.220Z,70.30
2017-11-04T02:31:58.649Z,70.10
2017-11-04T02:34:26.157Z,70.20
2017-11-04T02:36:53.618Z,69.80
2017-11-04T02:39:21.160Z,69.70
2017-11-04T02:41:48.620Z,69.60
2017-11-04T02:44:16.113Z,69.80
2017-11-04T02:46:43.610Z,69.80
2017-11-04T02:49:11.867Z,70.40
2017-11-04T02:51:39.322Z,70.30
2017-11-04T02:54:06.846Z,70.40
2017-11-04T02:56:34.299Z,70.50
2017-11-04T02:59:01.775Z,70.60
2017-11-04T03:01:29.292Z,70.80
2017-11-04T03:03:57.524Z,70.80
2017-11-04T03:06:25.006Z,71.20
2017-11-04T03:08:52.479Z,70.70
2017-11-04T03:11:19.993Z,70.60
2017-11-04T03:13:48.218Z,71.60
2017-11-04T03:16:15.667Z,71.50
2017-11-04T03:18:43.194Z,71.50
2017-11-04T03:21:10.702Z,71.30
2017-11-04T03:23:38.161Z,71.60
2017-11-04T03:26:05.718Z,71.00
2017-11-04T03:28:33.888Z,71.00
2017-11-04T03:31:01.390Z,70.90
2017-11-04T03:33:28.909Z,71.00
2017-11-04T03:35:56.372Z,71.30
2017-11-04T03:38:23.872Z,71.30
2017-11-04T03:40:51.373Z,71.40
2017-11-04T03:43:19.600Z,71.50
2017-11-04T03:45:47.089Z,71.30
2017-11-04T03:48:14.524Z,71.40
2017-11-04T03:50:42.041Z,71.70
2017-11-04T03:53:10.267Z,71.90
2017-11-04T03:55:38.437Z,71.80
2017-11-04T03:58:05.952Z,71.80
2017-11-04T04:00:34.188Z,72.50
2017-11-04T04:03:01.672Z,72.40
2017-11-04T04:05:29.135Z,73.10
2017-11-04T04:07:56.646Z,73.00
2017-11-04T04:10:24.123Z,73.00
2017-11-04T04:12:51.636Z,72.50
2017-11-04T04:15:19.133Z,72.20
2017-11-04T04:17:46.597Z,72.40
2017-11-04T04:20:14.086Z,71.70
2017-11-04T04:22:41.813Z,72.30
2017-11-04T04:25:09.312Z,72.50
2017-11-04T04:27:36.786Z,73.10
2017-11-04T04:30:04.253Z,73.90
2017-11-04T04:32:31.704Z,72.80
2017-11-04T04:34:59.204Z,72.70
2017-11-04T04:37:26.652Z,72.60
2017-11-04T04:39:54.140Z,73.20
2017-11-04T04:42:22.357Z,72.90
2017-11-04T04:44:49.868Z,72.90
2017-11-04T04:47:18.124Z,72.70
2017-11-04T04:49:45.594Z,72.60
2017-11-04T04:52:13.096Z,72.10
2017-11-04T04:54:41.347Z,72.30
2017-11-04T04:57:08.833Z,72.30
2017-11-04T04:59:37.087Z,72.40
2017-11-04T05:02:04.542Z,72.30
2017-11-04T05:04:32.009Z,72.30
2017-11-04T05:06:59.517Z,72.50
2017-11-04T05:09:26.986Z,72.50
2017-11-04T05:11:54.447Z,72.70
2017-11-04T05:14:21.960Z,72.70
2017-11-04T05:16:49.423Z,72.60
2017-11-04T05:19:16.921Z,72.80
2017-11-04T05:21:45.195Z,71.90
2017-11-04T05:24:13.437Z,71.70
2017-11-04T05:26:40.915Z,71.70
2017-11-04T05:29:09.157Z,71.70
2017-11-04T05:31:36.652Z,71.70
2017-11-04T05:34:04.123Z,71.80
2017-11-04T05:36:31.602Z,72.60
2017-11-04T05:38:59.849Z,71.70
2017-11-04T05:41:27.333Z,71.70
2017-11-04T05:43:54.820Z,71.60
2017-11-04T05:46:23.076Z,71.90
2017-11-04T05:48:50.535Z,71.80
2017-11-04T05:51:18.018Z,72.30
2017-11-04T05:53:45.529Z,72.40
2017-11-04T05:56:12.957Z,72.80
2017-11-04T05:58:40.464Z,72.90
2017-11-04T06:01:07.954Z,72.20
2017-11-04T06:03:35.424Z,72.40
2017-11-04T06:06:03.705Z,72.20
2017-11-04T06:08:31.932Z,71.90
2017-11-04T06:10:59.413Z,72.70
2017-11-04T06:13:26.910Z,72.00
2017-11-04T06:15:55.171Z,71.50
2017-11-04T06:18:22.688Z,71.50
2017-11-04T06:20:50.156Z,71.60
2017-11-04T06:23:17.695Z,71.70
2017-11-04T06:25:45.172Z,72.40
2017-11-04T06:28:12.687Z,72.60
2017-11-04T06:30:40.144Z,72.70
2017-11-04T06:33:07.606Z,72.50
2017-11-04T06:35:35.068Z,72.30
2017-11-04T06:38:02.573Z,71.90
2017-11-04T06:40:30.828Z,71.70
2017-11-04T06:42:58.361Z,71.70
2017-11-04T06:45:25.811Z,71.90
2017-11-04T06:47:53.322Z,71.90
2017-11-04T06:50:21.644Z,72.30
2017-11-04T06:52:49.126Z,72.20
2017-11-04T06:55:16.630Z,72.00
2017-11-04T06:57:44.078Z,72.10
2017-11-04T07:00:11.617Z,72.40
2017-11-04T07:02:39.125Z,72.80
2017-11-04T07:05:06.536Z,73.20
2017-11-04T07:07:34.033Z,72.90
2017-11-04T07:10:01.502Z,72.50
2017-11-04T07:12:28.953Z,72.20
2017-11-04T07:14:56.473Z,71.80
2017-11-04T07:17:23.934Z,71.60
2017-11-04T07:19:51.402Z,71.40
2017-11-04T07:22:18.935Z,71.50
2017-11-04T07:24:46.436Z,71.60
2017-11-04T07:27:14.706Z,71.50
2017-11-04T07:29:42.183Z,71.50
2017-11-04T07:32:09.691Z,71.30
2017-11-04T07:34:37.141Z,71.80
2017-11-04T07:37:04.629Z,72.00
2017-11-04T07:39:32.111Z,71.30
2017-11-04T07:41:59.610Z,71.60
2017-11-04T07:44:27.112Z,70.80
2017-11-04T07:46:55.352Z,70.70
2017-11-04T07:49:22.854Z,70.60
2017-11-04T07:51:50.329Z,70.30
2017-11-04T07:54:18.579Z,70.30
2017-11-04T07:56:46.078Z,70.20
2017-11-04T07:59:13.609Z,70.90
2017-11-04T08:01:41.076Z,71.00
2017-11-04T08:04:09.372Z,71.00
2017-11-04T08:06:36.880Z,71.00
2017-11-04T08:09:04.397Z,70.70
2017-11-04T08:11:31.838Z,70.90
2017-11-04T08:13:59.349Z,71.20
2017-11-04T08:16:26.856Z,71.20
2017-11-04T08:18:54.300Z,71.30
2017-11-04T08:21:21.807Z,71.30
2017-11-04T08:23:49.599Z,71.40
2017-11-04T08:26:17.112Z,71.30
2017-11-04T08:28:44.590Z,70.20
2017-11-04T08:31:12.132Z,70.10
2017-11-04T08:33:39.634Z,69.70
2017-11-04T08:36:07.887Z,69.80
2017-11-04T08:38:35.449Z,69.80
2017-11-04T08:41:02.939Z,70.40
2017-11-04T08:43:31.207Z,70.50
2017-11-04T08:45:58.793Z,70.40
2017-11-04T08:48:27.044Z,70.70
2017-11-04T08:50:54.564Z,70.10
2017-11-04T08:53:22.056Z,71.00
2017-11-04T08:55:49.543Z,70.20
2017-11-04T08:58:17.062Z,70.50
2017-11-04T09:00:44.525Z,70.40
2017-11-04T09:03:12.041Z,69.50
2017-11-04T09:05:39.510Z,68.70
2017-11-04T09:08:07.837Z,68.20
2017-11-04T09:10:35.380Z,68.20
2017-11-04T09:13:02.842Z,67.60
2017-11-04T09:15:30.397Z,67.10
2017-11-04T09:17:58.900Z,67.40
2017-11-04T09:20:27.838Z,67.70
2017-11-04T09:22:55.342Z,67.60
2017-11-04T09:25:22.820Z,68.90
2017-11-04T09:27:50.380Z,68.10
2017-11-04T09:30:17.828Z,68.10
2017-11-04T09:32:45.434Z,67.50
2017-11-04T09:35:12.980Z,67.50
2017-11-04T09:37:40.443Z,68.60
2017-11-04T09:40:07.890Z,68.40
2017-11-04T09:42:35.407Z,67.60
2017-11-04T09:45:02.913Z,67.60
2017-11-04T09:47:30.418Z,67.30
2017-11-04T09:49:57.906Z,67.70
2017-11-04T09:52:26.148Z,67.50
2017-11-04T09:54:53.669Z,67.50
2017-11-04T09:57:21.132Z,67.80
2017-11-04T09:59:49.412Z,66.80
2017-11-04T10:02:16.907Z,66.70
2017-11-04T10:04:44.413Z,67.00
2017-11-04T10:07:11.897Z,67.00
2017-11-04T10:09:40.157Z,66.90
2017-11-04T10:12:07.637Z,66.70
2017-11-04T10:14:35.898Z,67.00
2017-11-04T10:17:03.458Z,67.00
2017-11-04T10:19:30.924Z,67.10
2017-11-04T10:21:58.410Z,67.30
2017-11-04T10:24:26.676Z,68.00
2017-11-04T10:26:54.214Z,68.00
2017-11-04T10:29:21.696Z,68.20
2017-11-04T10:31:49.353Z,68.20
2017-11-04T10:34:16.815Z,68.00
2017-11-04T10:36:44.327Z,67.10
2017-11-04T10:39:11.783Z,67.20
2017-11-04T10:41:39.293Z,66.50
2017-11-04T10:44:06.770Z,66.60
2017-11-04T10:46:34.268Z,66.80
2017-11-04T10:49:02.556Z,67.10
2017-11-04T10:51:29.992Z,67.10
2017-11-04T10:53:57.471Z,66.70
2017-11-04T10:56:25.738Z,67.00
2017-11-04T10:58:54.052Z,67.00
2017-11-04T11:01:21.590Z,66.90
2017-11-04T11:03:49.044Z,66.00
2017-11-04T11:06:17.327Z,65.20
2017-11-04T11:08:44.928Z,65.20
2017-11-04T11:11:12.401Z,65.40
2017-11-04T11:13:39.913Z,64.90
2017-11-04T11:16:07.330Z,65.10
2017-11-04T11:18:34.971Z,65.00
2017-11-04T11:21:02.490Z,65.00
2017-11-04T11:23:29.923Z,65.20
2017-11-04T11:25:57.441Z,65.10
2017-11-04T11:28:25.119Z,65.40
2017-11-04T11:30:53.358Z,65.40
2017-11-04T11:33:20.904Z,65.30
2017-11-04T11:35:48.516Z,65.90
2017-11-04T11:38:15.941Z,64.50
2017-11-04T11:40:43.452Z,64.80
2017-11-04T11:43:10.910Z,64.00
2017-11-04T11:45:38.405Z,64.10
2017-11-04T11:48:05.879Z,64.00
2017-11-04T11:50:33.341Z,63.90
2017-11-04T11:53:00.869Z,63.50
2017-11-04T11:55:28.535Z,63.70
2017-11-04T11:57:56.131Z,64.00
2017-11-04T12:00:23.626Z,63.90
2017-11-04T12:02:51.144Z,63.00
2017-11-04T12:05:18.634Z,62.70
2017-11-04T12:07:46.138Z,62.30
2017-11-04T12:10:14.368Z,62.00
2017-11-04T12:12:41.867Z,61.30
2017-11-04T12:15:10.113Z,60.70
2017-11-04T12:17:37.610Z,60.60
2017-11-04T12:20:05.839Z,61.80
2017-11-04T12:22:33.357Z,61.10
2017-11-04T12:25:01.259Z,61.30
2017-11-04T12:27:28.697Z,61.10
2017-11-04T12:29:56.980Z,61.00
2017-11-04T12:32:25.209Z,61.20
2017-11-04T12:34:52.659Z,61.00
2017-11-04T12:37:20.131Z,59.80
2017-11-04T12:39:47.618Z,58.90
2017-11-04T12:42:15.115Z,58.50
2017-11-04T12:44:43.377Z,58.20
2017-11-04T12:47:10.888Z,58.20
2017-11-04T12:49:38.397Z,58.40
2017-11-04T12:52:05.938Z,58.00
2017-11-04T12:54:33.410Z,58.40
2017-11-04T12:57:00.836Z,58.50
2017-11-04T12:59:28.343Z,58.50
2017-11-04T13:01:55.840Z,58.90
2017-11-04T13:04:24.114Z,59.90
2017-11-04T13:06:52.342Z,59.90
2017-11-04T13:09:19.846Z,59.80
2017-11-04T13:11:47.366Z,60.60
2017-11-04T13:14:14.847Z,61.20
2017-11-04T13:16:42.345Z,61.60
2017-11-04T13:19:10.689Z,62.20
2017-11-04T13:21:38.218Z,62.20
2017-11-04T13:24:05.693Z,61.50
2017-11-04T13:26:33.923Z,61.40
2017-11-04T13:29:02.170Z,61.90
2017-11-04T13:31:29.687Z,62.10
2017-11-04T13:33:57.954Z,60.80
2017-11-04T13:36:26.195Z,60.00
2017-11-04T13:38:53.696Z,60.00
2017-11-04T13:41:21.992Z,60.00
2017-11-04T13:43:50.238Z,60.00
2017-11-04T13:46:17.702Z,59.90
2017-11-04T13:48:45.220Z,60.00
2017-11-04T13:51:13.460Z,60.20
2017-11-04T13:53:40.908Z,60.20
2017-11-04T13:56:08.398Z,60.30
2017-11-04T13:58:36.822Z,59.40
2017-11-04T14:01:05.007Z,59.40
2017-11-04T14:03:32.519Z,59.40
2017-11-04T14:05:59.961Z,59.50
2017-11-04T14:08:27.499Z,59.80
2017-11-04T14:10:55.005Z,59.60
2017-11-04T14:13:23.319Z,60.20
2017-11-04T14:15:50.827Z,60.20
2017-11-04T14:18:18.284Z,60.30
2017-11-04T14:20:45.790Z,60.30
2017-11-04T14:23:14.037Z,60.30
2017-11-04T14:25:43.071Z,60.30
2017-11-04T14:28:12.055Z,60.30
2017-11-04T14:30:40.368Z,60.30
2017-11-04T14:33:07.849Z,60.30
2017-11-04T14:35:35.303Z,60.80
2017-11-04T14:38:02.872Z,60.30
2017-11-04T14:40:30.337Z,60.30
2017-11-04T14:42:57.829Z,60.40
2017-11-04T14:45:26.837Z,60.50
2017-11-04T14:47:55.117Z,61.50
2017-11-04T14:50:22.600Z,60.70
2017-11-04T14:52:50.822Z,60.70
2017-11-04T14:55:18.314Z,60.70
2017-11-04T14:57:45.782Z,60.60
2017-11-04T15:00:14.149Z,61.60
2017-11-04T15:02:41.574Z,61.10
2017-11-04T15:05:09.042Z,60.90
2017-11-04T15:07:36.528Z,61.10
2017-11-04T15:10:04.038Z,61.10
2017-11-04T15:12:32.257Z,61.30
2017-11-04T15:14:59.773Z,61.30
2017-11-04T15:17:27.231Z,61.60
2017-11-04T15:19:54.830Z,61.70
2017-11-04T15:22:22.327Z,62.00
2017-11-04T15:24:49.809Z,62.10
2017-11-04T15:27:17.382Z,62.10
2017-11-04T15:29:44.879Z,62.20
2017-11-04T15:32:12.393Z,61.90
2017-11-04T15:34:39.895Z,62.10
2017-11-04T15:37:07.426Z,62.00
2017-11-04T15:39:35.671Z,61.80
2017-11-04T15:42:03.205Z,61.70
2017-11-04T15:44:30.647Z,61.10
2017-11-04T15:46:58.914Z,60.90
2017-11-04T15:49:26.403Z,60.90
2017-11-04T15:51:53.959Z,61.20
2017-11-04T15:54:21.408Z,61.50
2017-11-04T15:56:48.879Z,60.90
2017-11-04T15:59:17.141Z,60.50
2017-11-04T16:01:44.638Z,60.50
2017-11-04T16:04:12.151Z,60.90
2017-11-04T16:06:39.648Z,60.70
2017-11-04T16:09:07.932Z,61.00
2017-11-04T16:11:35.447Z,61.00
2017-11-04T16:14:02.964Z,61.60
2017-11-04T16:16:30.405Z,61.90
2017-11-04T16:18:57.903Z,62.10
2017-11-04T16:21:25.369Z,62.30
2017-11-04T16:23:52.887Z,62.30
2017-11-04T16:26:20.720Z,62.50
2017-11-04T16:28:48.171Z,62.40
2017-11-04T16:31:15.628Z,62.40
2017-11-04T16:33:43.191Z,62.50
2017-11-04T16:36:11.384Z,62.80
2017-11-04T16:38:38.894Z,62.60
2017-11-04T16:41:06.351Z,62.80
2017-11-04T16:43:34.850Z,63.10
2017-11-04T16:46:02.345Z,63.20
2017-11-04T16:48:29.832Z,63.20
2017-11-04T16:50:57.295Z,63.40
2017-11-04T16:53:24.774Z,63.40
2017-11-04T16:55:52.238Z,63.70
2017-11-04T16:58:19.751Z,63.80
2017-11-04T17:00:47.236Z,63.90
2017-11-04T17:03:14.742Z,63.90
2017-11-04T17:05:42.223Z,64.00
2017-11-04T17:08:10.449Z,64.10
2017-11-04T17:10:37.960Z,64.10
2017-11-04T17:13:05.447Z,64.10
2017-11-04T17:15:33.713Z,64.30
2017-11-04T17:18:01.927Z,64.30
2017-11-04T17:20:29.381Z,64.30
2017-11-04T17:22:56.887Z,64.30
2017-11-04T17:25:24.360Z,64.30
2017-11-04T17:27:51.874Z,64.20
2017-11-04T17:30:19.344Z,64.20
2017-11-04T17:32:46.857Z,64.00
2017-11-04T17:35:14.380Z,64.20
2017-11-04T17:37:41.857Z,64.40
2017-11-04T17:40:09.361Z,64.40
2017-11-04T17:42:37.629Z,65.20
2017-11-04T17:45:05.855Z,65.50
2017-11-04T17:47:33.351Z,65.50
2017-11-04T17:50:00.879Z,65.60
2017-11-04T17:52:28.363Z,65.90
2017-11-04T17:54:55.855Z,66.00
2017-11-04T17:57:23.372Z,66.00
2017-11-04T17:59:50.874Z,66.30
2017-11-04T18:02:18.357Z,66.50
2017-11-04T18:04:46.614Z,66.80
2017-11-04T18:07:14.156Z,66.70
2017-11-04T18:09:42.339Z,66.90
2017-11-04T18:12:09.861Z,66.70
2017-11-04T18:14:38.130Z,67.50
2017-11-04T18:17:06.422Z,67.70
2017-11-04T18:19:33.897Z,67.70
2017-11-04T18:22:01.415Z,68.10
2017-11-04T18:24:28.917Z,68.60
2017-11-04T18:26:57.171Z,69.40
2017-11-04T18:29:25.412Z,69.40
2017-11-04T18:31:52.916Z,69.40
2017-11-04T18:34:21.188Z,69.40
2017-11-04T18:36:49.658Z,69.40
2017-11-04T18:39:17.199Z,69.40
2017-11-04T18:41:45.425Z,70.50
2017-11-04T18:44:13.667Z,71.50
2017-11-04T18:46:41.141Z,71.50
2017-11-04T18:49:08.659Z,72.90
2017-11-04T18:51:36.158Z,74.90
2017-11-04T18:54:03.623Z,76.90
2017-11-04T18:56:31.146Z,77.60
2017-11-04T18:58:58.647Z,78.30
2017-11-04T19:01:26.112Z,78.60
2017-11-04T19:03:53.614Z,79.30
2017-11-04T19:06:21.924Z,80.80
2017-11-04T19:08:49.402Z,80.80
2017-11-04T19:11:17.039Z,81.00
2017-11-04T19:13:44.508Z,81.20
2017-11-04T19:16:12.017Z,81.00
2017-11-04T19:18:39.434Z,80.90
2017-11-04T19:21:06.976Z,80.30
2017-11-04T19:23:34.401Z,79.80
2017-11-04T19:26:01.915Z,79.80
2017-11-04T19:28:30.177Z,80.90
2017-11-04T19:30:57.731Z,80.90
2017-11-04T19:33:25.226Z,81.70
2017-11-04T19:35:52.720Z,82.30
2017-11-04T19:38:20.185Z,82.30
2017-11-04T19:40:47.684Z,82.20
2017-11-04T19:43:15.996Z,82.30
2017-11-04T19:45:43.409Z,82.30
2017-11-04T19:48:11.671Z,82.10
2017-11-04T19:50:39.216Z,82.20
2017-11-04T19:53:06.694Z,81.80
2017-11-04T19:55:34.209Z,81.60
2017-11-04T19:58:03.255Z,81.30
2017-11-04T20:00:30.891Z,81.30
2017-11-04T20:02:58.396Z,80.90
2017-11-04T20:05:25.911Z,80.50
2017-11-04T20:07:53.453Z,80.10
2017-11-04T20:10:20.950Z,79.40
2017-11-04T20:12:49.305Z,77.40
2017-11-04T20:15:17.591Z,77.40
2017-11-04T20:17:45.879Z,77.60
2017-11-04T20:20:13.444Z,77.60
2017-11-04T20:22:40.896Z,77.40
2017-11-04T20:25:08.356Z,77.40
2017-11-04T20:27:36.789Z,77.20
2017-11-04T20:30:04.300Z,77.20
2017-11-04T20:32:32.578Z,77.50
2017-11-04T20:35:00.822Z,77.50
2017-11-04T20:37:28.351Z,77.40
2017-11-04T20:39:55.837Z,77.70
2017-11-04T20:42:24.106Z,77.80
2017-11-04T20:44:51.595Z,77.80
2017-11-04T20:47:19.043Z,78.00
2017-11-04T20:49:46.554Z,78.10
2017-11-04T20:52:14.830Z,78.40
2017-11-04T20:54:42.308Z,78.40
2017-11-04T20:57:10.603Z,78.40
2017-11-04T20:59:38.070Z,78.30
2017-11-04T21:02:05.527Z,78.70
2017-11-04T21:04:33.094Z,79.20
2017-11-04T21:07:00.574Z,78.90
2017-11-04T21:09:28.112Z,78.80
2017-11-04T21:11:56.351Z,78.90
2017-11-04T21:14:23.898Z,78.80
2017-11-04T21:16:51.525Z,78.80
2017-11-04T21:19:18.973Z,78.80
2017-11-04T21:21:47.212Z,78.80
2017-11-04T21:24:14.746Z,78.80
2017-11-04T21:26:42.262Z,78.10
2017-11-04T21:29:09.795Z,77.30
2017-11-04T21:31:37.314Z,77.10
2017-11-04T21:34:04.784Z,77.00
2017-11-04T21:36:33.046Z,77.10
2017-11-04T21:39:00.547Z,77.10
2017-11-04T21:41:28.006Z,77.50
2017-11-04T21:43:56.228Z,77.80
2017-11-04T21:46:23.796Z,77.70
2017-11-04T21:48:51.350Z,77.60
2017-11-04T21:51:18.873Z,77.90
2017-11-04T21:53:46.320Z,78.10
2017-11-04T21:56:13.804Z,78.10
2017-11-04T21:58:41.315Z,78.20
2017-11-04T22:01:08.838Z,78.20
2017-11-04T22:03:36.343Z,78.40
2017-11-04T22:06:03.806Z,78.50
2017-11-04T22:08:31.312Z,78.70
2017-11-04T22:10:58.775Z,79.00
2017-11-04T22:13:26.261Z,79.70
2017-11-04T22:15:53.717Z,80.20
2017-11-04T22:18:21.240Z,80.10
2017-11-04T22:20:49.461Z,80.20
2017-11-04T22:23:17.106Z,80.20
2017-11-04T22:25:44.635Z,80.40
2017-11-04T22:28:12.954Z,79.60
2017-11-04T22:30:40.424Z,79.50
2017-11-04T22:33:07.865Z,78.90
2017-11-04T22:35:35.429Z,79.20
2017-11-04T22:38:02.843Z,78.90
2017-11-04T22:40:30.330Z,78.90
2017-11-04T22:42:57.843Z,78.90
2017-11-04T22:45:25.314Z,78.30
2017-11-04T22:47:52.811Z,78.90
2017-11-04T22:50:20.365Z,78.90
2017-11-04T22:52:47.883Z,78.90
2017-11-04T22:55:15.372Z,78.90
2017-11-04T22:57:42.890Z,78.90
2017-11-04T23:00:11.152Z,78.90
2017-11-04T23:02:38.656Z,78.80
2017-11-04T23:05:06.146Z,78.90
2017-11-04T23:07:33.630Z,78.40
2017-11-04T23:10:01.121Z,78.20
2017-11-04T23:12:28.645Z,78.30
2017-11-04T23:14:56.129Z,78.40
2017-11-04T23:17:23.608Z,78.20
2017-11-04T23:19:51.878Z,77.80
2017-11-04T23:22:20.117Z,77.70
2017-11-04T23:24:47.603Z,77.70
2017-11-04T23:27:15.126Z,77.70
2017-11-04T23:29:42.622Z,77.50
2017-11-04T23:32:10.103Z,77.50
2017-11-04T23:34:38.386Z,77.40
2017-11-04T23:37:05.899Z,77.40
2017-11-04T23:39:33.358Z,77.30
2017-11-04T23:42:00.844Z,77.20
2017-11-04T23:44:29.066Z,77.40
2017-11-04T23:46:57.325Z,77.30
2017-11-04T23:49:24.801Z,77.30
2017-11-04T23:51:52.288Z,77.40
2017-11-04T23:54:19.743Z,77.70
2017-11-04T23:56:47.232Z,77.10
2017-11-04T23:59:14.741Z,77.10
